createdAt,value
2022-10-19T00:02:41.150Z,13.05
2022-10-19T00:05:46.769Z,13.00
2022-10-19T00:08:57.055Z,13.01
2022-10-19T00:12:03.319Z,13.05
2022-10-19T00:15:10.748Z,13.06
2022-10-19T00:18:16.337Z,13.10
2022-10-19T00:21:23.231Z,13.12
2022-10-19T00:24:31.655Z,13.15
2022-10-19T00:27:39.094Z,13.15
2022-10-19T00:30:44.745Z,13.10
2022-10-19T00:33:51.277Z,13.04
2022-10-19T00:36:56.893Z,12.98
2022-10-19T00:40:06.590Z,13.00
2022-10-19T00:43:16.208Z,13.02
2022-10-19T00:46:22.802Z,13.02
2022-10-19T00:49:32.794Z,12.97
2022-10-19T00:52:39.571Z,12.98
2022-10-19T00:55:49.306Z,12.99
2022-10-19T00:58:55.882Z,12.96
2022-10-19T01:02:14.692Z,13.01
2022-10-19T01:05:21.930Z,13.04
2022-10-19T01:08:27.781Z,13.05
2022-10-19T01:11:45.489Z,13.07
2022-10-19T01:15:06.621Z,13.07
2022-10-19T01:18:22.899Z,13.07
2022-10-19T01:21:32.130Z,13.06
2022-10-19T01:28:21.984Z,13.09
2022-10-19T01:31:38.382Z,13.13
2022-10-19T01:34:51.130Z,13.18
2022-10-19T01:38:08.136Z,13.23
2022-10-19T01:41:19.915Z,13.23
2022-10-19T01:44:31.399Z,13.19
2022-10-19T01:47:49.479Z,13.16
2022-10-19T01:51:03.303Z,13.19
2022-10-19T01:54:15.489Z,13.15
2022-10-19T01:57:26.762Z,13.06
2022-10-19T02:00:34.327Z,13.01
2022-10-19T02:03:44.114Z,12.94
2022-10-19T02:06:50.108Z,12.89
2022-10-19T02:09:56.981Z,12.88
2022-10-19T02:13:07.271Z,12.87
2022-10-19T02:16:19.462Z,12.89
2022-10-19T02:19:27.895Z,12.89
2022-10-19T02:22:35.084Z,12.86
2022-10-19T02:25:40.886Z,12.88
2022-10-19T02:28:47.973Z,12.82
2022-10-19T02:31:53.677Z,12.79
2022-10-19T02:35:03.011Z,12.77
2022-10-19T02:38:10.487Z,12.76
2022-10-19T02:41:21.553Z,12.73
2022-10-19T02:44:32.341Z,12.71
2022-10-19T02:47:41.807Z,12.70
2022-10-19T02:50:52.176Z,12.68
2022-10-19T02:54:01.249Z,12.68
2022-10-19T02:57:19.194Z,12.73
2022-10-19T03:00:25.918Z,12.75
2022-10-19T03:03:31.544Z,12.79
2022-10-19T03:06:41.209Z,12.80
2022-10-19T03:09:47.358Z,12.84
2022-10-19T03:12:53.772Z,12.88
2022-10-19T03:15:59.334Z,12.89
2022-10-19T03:19:06.424Z,12.88
2022-10-19T03:22:16.421Z,12.92
2022-10-19T03:25:22.883Z,12.89
2022-10-19T03:28:28.520Z,12.86
2022-10-19T03:31:35.124Z,12.79
2022-10-19T03:34:40.696Z,12.75
2022-10-19T03:37:49.969Z,12.68
2022-10-19T03:40:55.575Z,12.54
2022-10-19T03:44:02.793Z,12.43
2022-10-19T03:47:08.868Z,12.37
2022-10-19T03:50:17.147Z,12.25
2022-10-19T03:53:25.488Z,12.15
2022-10-19T03:56:33.821Z,12.06
2022-10-19T03:59:39.397Z,11.99
2022-10-19T04:02:45.848Z,11.89
2022-10-19T04:05:51.630Z,11.81
2022-10-19T04:09:03.092Z,11.76
2022-10-19T04:12:09.935Z,11.73
2022-10-19T04:15:16.372Z,11.72
2022-10-19T04:18:21.991Z,11.69
2022-10-19T04:21:30.899Z,11.68
2022-10-19T04:24:39.252Z,11.62
2022-10-19T04:27:45.704Z,11.60
2022-10-19T04:30:51.296Z,11.56
2022-10-19T04:33:58.167Z,11.52
2022-10-19T04:37:03.807Z,11.50
2022-10-19T04:40:15.189Z,11.45
2022-10-19T04:43:21.071Z,11.39
2022-10-19T04:46:29.534Z,11.36
2022-10-19T04:49:35.146Z,11.32
2022-10-19T04:52:41.587Z,11.32
2022-10-19T04:55:52.624Z,11.35
2022-10-19T04:59:05.834Z,11.35
2022-10-19T05:02:11.506Z,11.29
2022-10-19T05:05:18.307Z,11.24
2022-10-19T05:08:24.007Z,11.19
2022-10-19T05:11:33.445Z,11.11
2022-10-19T05:14:42.627Z,11.04
2022-10-19T05:17:49.474Z,10.99
2022-10-19T05:20:55.103Z,10.96
2022-10-19T05:24:02.772Z,10.90
2022-10-19T05:27:11.497Z,10.85
2022-10-19T05:30:17.929Z,10.84
2022-10-19T05:33:23.578Z,10.82
2022-10-19T05:36:34.769Z,10.80
2022-10-19T05:39:40.690Z,10.81
2022-10-19T05:42:49.908Z,10.86
2022-10-19T05:45:55.487Z,10.92
2022-10-19T05:49:03.786Z,10.93
2022-10-19T05:52:09.448Z,10.99
2022-10-19T05:55:15.892Z,11.00
2022-10-19T05:58:24.379Z,11.05
2022-10-19T06:01:32.088Z,11.12
2022-10-19T06:04:37.995Z,11.17
2022-10-19T06:07:44.463Z,11.22
2022-10-19T06:10:50.932Z,11.27
2022-10-19T06:14:03.329Z,11.34
2022-10-19T06:17:09.799Z,11.45
2022-10-19T06:20:16.375Z,11.53
2022-10-19T06:23:22.331Z,11.53
2022-10-19T06:26:30.079Z,11.53
2022-10-19T06:29:38.707Z,11.57
2022-10-19T06:32:45.237Z,11.60
2022-10-19T06:35:51.071Z,11.63
2022-10-19T06:38:59.838Z,11.67
2022-10-19T06:42:07.569Z,11.69
2022-10-19T06:45:17.192Z,11.71
2022-10-19T06:48:23.617Z,11.74
2022-10-19T06:51:32.174Z,11.77
2022-10-19T06:54:37.939Z,11.72
2022-10-19T06:57:44.347Z,11.75
2022-10-19T07:00:58.080Z,11.76
2022-10-19T07:04:07.496Z,11.77
2022-10-19T07:07:13.136Z,11.78
2022-10-19T07:10:19.935Z,11.77
2022-10-19T07:13:25.820Z,11.84
2022-10-19T07:16:35.249Z,11.82
2022-10-19T07:19:41.061Z,11.84
2022-10-19T07:22:47.769Z,11.78
2022-10-19T07:25:54.928Z,11.72
2022-10-19T07:29:03.385Z,11.71
2022-10-19T07:32:11.819Z,11.85
2022-10-19T07:35:18.721Z,12.00
2022-10-19T07:38:24.337Z,12.00
2022-10-19T07:41:31.012Z,12.05
2022-10-19T07:44:36.942Z,12.04
2022-10-19T07:47:46.129Z,12.05
2022-10-19T07:50:51.941Z,12.02
2022-10-19T07:53:58.381Z,12.04
2022-10-19T07:57:04.237Z,12.12
2022-10-19T08:00:12.234Z,12.21
2022-10-19T08:06:47.139Z,12.10
2022-10-19T08:09:54.109Z,12.09
2022-10-19T08:13:00.930Z,12.05
2022-10-19T08:16:08.249Z,12.03
2022-10-19T08:19:19.324Z,12.04
2022-10-19T08:22:25.251Z,12.09
2022-10-19T08:25:31.879Z,12.13
2022-10-19T08:28:37.513Z,12.23
2022-10-19T08:31:45.826Z,12.35
2022-10-19T08:34:54.195Z,12.43
2022-10-19T08:38:02.903Z,12.56
2022-10-19T08:41:20.170Z,12.55
2022-10-19T08:44:51.807Z,12.55
2022-10-19T08:48:03.618Z,12.43
2022-10-19T08:51:16.182Z,12.33
2022-10-19T08:54:22.645Z,12.23
2022-10-19T08:57:43.009Z,12.14
2022-10-19T09:00:55.924Z,12.03
2022-10-19T09:04:08.695Z,11.91
2022-10-19T09:07:31.134Z,11.91
2022-10-19T09:10:41.868Z,11.86
2022-10-19T09:14:04.823Z,11.96
2022-10-19T09:17:17.154Z,12.12
2022-10-19T09:20:25.206Z,12.17
2022-10-19T09:23:41.166Z,12.19
2022-10-19T09:26:56.365Z,12.23
2022-10-19T09:30:06.637Z,12.29
2022-10-19T09:33:19.544Z,12.33
2022-10-19T09:36:39.298Z,12.37
2022-10-19T09:39:56.587Z,12.43
2022-10-19T09:43:09.514Z,12.41
2022-10-19T09:46:20.971Z,12.45
2022-10-19T09:49:43.040Z,12.40
2022-10-19T09:52:50.177Z,12.38
2022-10-19T09:56:07.758Z,12.33
2022-10-19T09:59:25.051Z,12.21
2022-10-19T10:02:34.678Z,12.13
2022-10-19T10:05:44.503Z,12.13
2022-10-19T10:08:58.168Z,12.12
2022-10-19T10:12:09.163Z,12.11
2022-10-19T10:15:20.992Z,12.06
2022-10-19T10:18:28.397Z,12.13
2022-10-19T10:21:36.693Z,12.15
2022-10-19T10:24:55.287Z,12.13
2022-10-19T10:28:07.510Z,12.05
2022-10-19T10:31:13.622Z,11.96
2022-10-19T10:34:37.976Z,11.84
2022-10-19T10:37:51.981Z,11.91
2022-10-19T10:41:13.243Z,12.00
2022-10-19T10:44:26.595Z,11.91
2022-10-19T10:47:34.605Z,11.89
2022-10-19T10:50:41.272Z,11.90
2022-10-19T10:53:47.779Z,11.86
2022-10-19T10:57:14.171Z,11.81
2022-10-19T11:00:25.503Z,11.88
2022-10-19T11:03:33.343Z,11.86
2022-10-19T11:06:45.691Z,11.82
2022-10-19T11:09:55.882Z,11.85
2022-10-19T11:13:11.728Z,11.84
2022-10-19T11:16:21.944Z,11.76
2022-10-19T11:19:38.018Z,11.77
2022-10-19T11:22:49.935Z,11.80
2022-10-19T11:26:06.318Z,11.95
2022-10-19T11:29:35.437Z,12.24
2022-10-19T11:32:54.424Z,12.36
2022-10-19T11:36:03.292Z,12.43
2022-10-19T11:39:25.889Z,12.50
2022-10-19T11:42:52.905Z,12.53
2022-10-19T11:46:06.875Z,12.49
2022-10-19T11:49:30.777Z,12.41
2022-10-19T11:52:48.823Z,12.43
2022-10-19T11:56:01.205Z,12.43
2022-10-19T11:59:17.571Z,12.29
2022-10-19T12:02:45.291Z,12.22
2022-10-19T12:06:09.868Z,12.21
2022-10-19T12:09:29.163Z,12.34
2022-10-19T12:12:39.173Z,12.39
2022-10-19T12:15:48.729Z,12.52
2022-10-19T12:18:58.643Z,12.53
2022-10-19T12:22:08.741Z,12.52
2022-10-19T12:25:17.606Z,12.55
2022-10-19T12:28:30.276Z,12.55
2022-10-19T12:31:38.751Z,12.52
2022-10-19T12:34:53.080Z,12.54
2022-10-19T12:38:09.832Z,12.38
2022-10-19T12:41:23.627Z,12.30
2022-10-19T12:44:57.748Z,12.26
2022-10-19T12:48:25.484Z,12.22
2022-10-19T12:51:32.000Z,12.22
2022-10-19T12:54:43.205Z,12.25
2022-10-19T12:57:58.832Z,12.25
2022-10-19T13:01:07.762Z,12.24
2022-10-19T13:04:16.906Z,12.29
2022-10-19T13:07:23.941Z,12.37
2022-10-19T13:10:35.011Z,12.45
2022-10-19T13:14:03.423Z,12.58
2022-10-19T13:17:10.671Z,12.59
2022-10-19T13:20:51.491Z,12.62
2022-10-19T13:24:38.730Z,12.73
2022-10-19T13:27:47.909Z,12.63
2022-10-19T13:31:11.557Z,12.60
2022-10-19T13:34:19.552Z,12.61
2022-10-19T13:37:26.137Z,12.53
2022-10-19T13:40:31.768Z,12.53
2022-10-19T13:43:52.083Z,12.55
2022-10-19T13:47:19.344Z,12.52
2022-10-19T13:50:37.179Z,12.49
2022-10-19T13:53:48.517Z,12.43
2022-10-19T13:57:10.096Z,12.40
2022-10-19T14:00:22.833Z,12.41
2022-10-19T14:03:43.887Z,12.45
2022-10-19T14:06:55.207Z,12.41
2022-10-19T14:10:09.030Z,12.34
2022-10-19T14:13:17.908Z,12.28
2022-10-19T14:16:27.142Z,12.30
2022-10-19T14:19:34.880Z,12.24
2022-10-19T14:22:41.315Z,12.26
2022-10-19T14:25:53.617Z,12.21
2022-10-19T14:29:03.388Z,12.07
2022-10-19T14:32:12.397Z,11.99
2022-10-19T14:35:23.904Z,12.01
2022-10-19T14:38:35.306Z,11.99
2022-10-19T14:41:41.764Z,11.92
2022-10-19T14:44:47.630Z,11.87
2022-10-19T14:48:00.316Z,11.87
2022-10-19T14:51:12.244Z,11.86
2022-10-19T14:54:29.071Z,11.83
2022-10-19T14:57:37.413Z,11.80
2022-10-19T15:00:44.864Z,11.81
2022-10-19T15:03:55.912Z,11.76
2022-10-19T15:07:33.697Z,11.75
2022-10-19T15:10:45.885Z,11.72
2022-10-19T15:13:58.604Z,11.59
2022-10-19T15:17:06.532Z,11.48
2022-10-19T15:20:27.775Z,11.38
2022-10-19T15:23:39.488Z,11.25
2022-10-19T15:27:01.868Z,11.18
2022-10-19T15:30:29.037Z,11.12
2022-10-19T15:33:41.209Z,11.05
2022-10-19T15:36:58.030Z,11.04
2022-10-19T15:40:13.679Z,10.98
2022-10-19T15:43:46.273Z,10.97
2022-10-19T15:47:21.075Z,10.90
2022-10-19T15:50:34.832Z,10.84
2022-10-19T15:53:45.222Z,10.82
2022-10-19T15:56:56.602Z,10.73
2022-10-19T16:00:06.244Z,10.65
2022-10-19T16:03:12.369Z,10.62
2022-10-19T16:06:21.769Z,10.60
2022-10-19T16:09:30.551Z,10.59
2022-10-19T16:12:36.988Z,10.58
2022-10-19T16:15:43.738Z,10.60
2022-10-19T16:18:50.518Z,10.61
2022-10-19T16:21:56.156Z,10.63
2022-10-19T16:25:06.534Z,10.65
2022-10-19T16:28:12.181Z,10.70
2022-10-19T16:31:19.871Z,10.73
2022-10-19T16:34:25.555Z,10.76
2022-10-19T16:37:32.154Z,10.79
2022-10-19T16:40:40.889Z,10.81
2022-10-19T16:43:48.496Z,10.83
2022-10-19T16:46:54.091Z,10.86
2022-10-19T16:50:02.777Z,10.86
2022-10-19T16:53:10.561Z,10.88
2022-10-19T16:56:19.774Z,10.93
2022-10-19T16:59:25.376Z,10.94
2022-10-19T17:02:32.289Z,10.92
2022-10-19T17:05:40.816Z,10.88
2022-10-19T17:12:17.737Z,10.81
2022-10-19T17:15:42.031Z,10.85
2022-10-19T17:18:48.547Z,10.87
2022-10-19T17:21:59.212Z,10.86
2022-10-19T17:25:09.430Z,10.82
2022-10-19T17:28:18.652Z,10.79
2022-10-19T17:31:25.058Z,10.77
2022-10-19T17:34:31.550Z,10.74
2022-10-19T17:37:37.404Z,10.75
2022-10-19T17:40:44.071Z,10.73
2022-10-19T17:43:53.926Z,10.74
2022-10-19T17:47:00.585Z,10.74
2022-10-19T17:50:08.817Z,10.74
2022-10-19T17:53:15.281Z,10.75
2022-10-19T17:56:23.033Z,10.74
2022-10-19T17:59:46.599Z,10.78
2022-10-19T18:02:57.961Z,10.80
2022-10-19T18:06:09.674Z,10.80
2022-10-19T18:09:16.501Z,10.79
2022-10-19T18:12:22.983Z,10.79
2022-10-19T18:15:31.590Z,10.76
2022-10-19T18:18:40.309Z,10.79
2022-10-19T18:21:49.286Z,10.78
2022-10-19T18:24:55.719Z,10.79
2022-10-19T18:28:01.274Z,10.77
2022-10-19T18:31:14.131Z,10.75
2022-10-19T18:34:20.721Z,10.74
2022-10-19T18:37:27.194Z,10.71
2022-10-19T18:40:32.808Z,10.67
2022-10-19T18:43:39.245Z,10.63
2022-10-19T18:46:47.546Z,10.62
2022-10-19T18:49:53.957Z,10.58
2022-10-19T18:52:59.540Z,10.52
2022-10-19T18:56:09.101Z,10.47
2022-10-19T18:59:14.995Z,10.45
2022-10-19T19:02:34.951Z,10.43
2022-10-19T19:05:48.056Z,10.39
2022-10-19T19:08:57.505Z,10.37
2022-10-19T19:12:03.812Z,10.34
2022-10-19T19:15:11.483Z,10.32
2022-10-19T19:18:19.924Z,10.28
2022-10-19T19:21:28.170Z,10.19
2022-10-19T19:24:34.140Z,10.12
2022-10-19T19:27:40.645Z,10.06
2022-10-19T19:30:48.378Z,10.01
2022-10-19T19:33:57.601Z,9.93
2022-10-19T19:37:06.169Z,9.90
2022-10-19T19:40:15.629Z,9.85
2022-10-19T19:43:21.470Z,9.81
2022-10-19T19:46:27.919Z,9.77
2022-10-19T19:49:36.286Z,9.74
2022-10-19T19:52:43.561Z,9.70
2022-10-19T19:55:50.252Z,9.71
2022-10-19T19:58:58.741Z,9.69
2022-10-19T20:02:06.428Z,9.66
2022-10-19T20:05:16.025Z,9.65
2022-10-19T20:08:21.635Z,9.60
2022-10-19T20:11:30.053Z,9.55
2022-10-19T20:14:35.646Z,9.51
2022-10-19T20:17:42.717Z,9.49
2022-10-19T20:20:51.615Z,9.45
2022-10-19T20:23:58.091Z,9.40
2022-10-19T20:27:03.704Z,9.34
2022-10-19T20:30:12.002Z,9.31
2022-10-19T20:33:17.585Z,9.23
2022-10-19T20:36:28.456Z,9.17
2022-10-19T20:39:34.072Z,9.10
2022-10-19T20:42:42.566Z,9.03
2022-10-19T20:45:48.080Z,8.95
2022-10-19T20:48:55.656Z,8.90
2022-10-19T20:52:03.989Z,8.76
2022-10-19T20:55:11.120Z,8.79
2022-10-19T20:58:16.682Z,8.76
2022-10-19T21:01:24.617Z,8.74
2022-10-19T21:04:30.683Z,8.69
2022-10-19T21:07:39.977Z,8.68
2022-10-19T21:10:45.542Z,8.61
2022-10-19T21:13:55.598Z,8.57
2022-10-19T21:17:03.548Z,8.47
2022-10-19T21:20:11.161Z,8.41
2022-10-19T21:23:19.563Z,8.35
2022-10-19T21:26:28.424Z,8.29
2022-10-19T21:29:34.171Z,8.23
2022-10-19T21:32:43.438Z,8.17
2022-10-19T21:39:03.350Z,8.11
2022-10-19T21:42:09.290Z,8.05
2022-10-19T21:45:29.955Z,7.99
2022-10-19T21:48:39.221Z,8.00
2022-10-19T21:51:48.148Z,7.99
2022-10-19T21:54:56.552Z,7.94
2022-10-19T21:58:03.817Z,7.89
2022-10-19T22:01:10.232Z,7.87
2022-10-19T22:04:18.682Z,7.87
2022-10-19T22:07:24.255Z,7.86
2022-10-19T22:10:33.444Z,7.77
2022-10-19T22:13:39.531Z,7.69
2022-10-19T22:16:46.387Z,7.66
2022-10-19T22:19:52.737Z,7.61
2022-10-19T22:22:59.132Z,7.56
2022-10-19T22:26:14.872Z,7.52
2022-10-19T22:29:21.806Z,7.48
2022-10-19T22:32:27.355Z,7.47
2022-10-19T22:35:56.344Z,7.44
2022-10-19T22:39:03.600Z,7.38
2022-10-19T22:42:12.923Z,7.40
2022-10-19T22:45:18.672Z,7.39
2022-10-19T22:48:25.518Z,7.35
2022-10-19T22:51:31.240Z,7.35
2022-10-19T22:54:37.922Z,7.31
2022-10-19T22:57:46.509Z,7.28
2022-10-19T23:01:03.545Z,7.24
2022-10-19T23:04:09.294Z,7.21
2022-10-19T23:07:15.779Z,7.18
2022-10-19T23:10:21.421Z,7.14
2022-10-19T23:13:30.989Z,7.10
2022-10-19T23:16:36.896Z,7.06
2022-10-19T23:19:43.369Z,6.97
2022-10-19T23:22:48.906Z,6.92
2022-10-19T23:26:03.552Z,6.84
2022-10-19T23:29:11.949Z,6.80
2022-10-19T23:32:18.369Z,6.73
2022-10-19T23:35:24.049Z,6.66
2022-10-19T23:38:30.486Z,6.59
2022-10-19T23:41:36.775Z,6.53
2022-10-19T23:44:46.250Z,6.49
2022-10-19T23:47:51.802Z,6.41
2022-10-19T23:51:03.336Z,6.35
2022-10-19T23:54:09.217Z,6.30
2022-10-19T23:57:15.671Z,6.25
